Time;durP1;ratioP1;P1;durP2;ratioP2;P2;SDS_P1;SDS_P2;PMS_P1;PMS_P2;Temp;Humidity;BMP_temperature;BMP_pressure;BME280_temperature;BME280_humidity;BME280_pressure;Samples;Min_cycle;Max_cycle;Signal;HPM_P1;HPM_P2
2021/07/09 09:46:15;;;;;;;3.33;1.90;;;;;;;15.05;100.00;94109.13;743877;39;20429;-84
2021/07/09 09:46:45;;;;;;;2.05;1.90;;;;;;;15.00;100.00;94109.09;740790;40;20029;-85
2021/07/09 09:47:16;;;;;;;2.30;1.88;;;;;;;15.04;100.00;94103.09;733854;40;20140;-85
2021/07/09 09:47:47;;;;;;;2.13;1.67;;;;;;;15.03;100.00;94103.34;735999;40;20184;-85
2021/07/09 09:48:18;;;;;;;2.85;1.70;;;;;;;15.02;100.00;94104.38;730114;40;20031;-85
2021/07/09 09:48:51;;;;;;;2.80;1.75;;;;;;;14.99;100.00;94102.28;731891;40;20197;-85
2021/07/09 09:49:30;;;;;;;1.60;1.50;;;;;;;14.97;98.74;94109.59;729350;40;20418;-85
2021/07/09 09:50:07;;;;;;;2.10;1.58;;;;;;;14.88;96.51;94110.06;729949;40;20287;-85
2021/07/09 09:50:46;;;;;;;3.03;1.42;;;;;;;14.95;98.84;94106.44;730892;40;20045;-85
2021/07/09 09:51:26;;;;;;;3.00;1.52;;;;;;;15.07;99.10;94109.63;730388;40;20181;-85
2021/07/09 09:51:56;;;;;;;2.92;1.88;;;;;;;15.08;97.52;94116.47;729496;40;20099;-85
2021/07/09 09:52:38;;;;;;;2.70;1.65;;;;;;;15.05;96.55;94109.13;727521;40;20059;-85
2021/07/09 09:53:09;;;;;;;1.75;1.65;;;;;;;15.11;95.83;94115.97;726594;40;20802;-87
2021/07/09 09:53:40;;;;;;;5.20;1.70;;;;;;;15.12;95.65;94120.16;725172;40;20031;-85
2021/07/09 09:54:12;;;;;;;1.63;1.52;;;;;;;15.16;95.73;94116.00;718545;40;20098;-87
2021/07/09 09:54:46;;;;;;;1.50;1.40;;;;;;;15.21;92.71;94125.69;725331;40;20039;-84
2021/07/09 09:55:31;;;;;;;1.75;1.52;;;;;;;15.32;94.80;94116.84;725055;40;20656;-86
2021/07/09 09:56:07;;;;;;;1.70;1.60;;;;;;;15.31;94.30;94120.53;728139;40;20086;-87
2021/07/09 09:56:39;;;;;;;1.83;1.63;;;;;;;15.47;92.63;94124.00;724602;40;20040;-84
2021/07/09 09:57:15;;;;;;;1.33;1.20;;;;;;;15.55;90.24;94111.19;719630;40;20421;-85
2021/07/09 09:57:48;;;;;;;1.20;1.10;;;;;;;15.58;89.95;94115.91;725450;40;20044;-85
2021/07/09 09:58:19;;;;;;;2.13;1.10;;;;;;;15.55;88.35;94123.53;725051;40;20045;-84
2021/07/09 09:59:13;;;;;;;2.03;1.48;;;;;;;15.78;90.40;94117.09;726122;40;20052;-84
2021/07/09 09:59:45;;;;;;;1.10;1.05;;;;;;;15.72;89.25;94113.66;718491;41;20044;-83
2021/07/09 10:00:21;;;;;;;1.30;1.20;;;;;;;15.92;90.33;94122.63;719403;41;20325;-84
2021/07/09 10:00:52;;;;;;;1.30;1.20;;;;;;;16.12;89.95;94114.03;720501;41;20041;-84
2021/07/09 10:01:30;;;;;;;1.90;1.15;;;;;;;16.20;89.84;94116.94;722465;40;20089;-83
2021/07/09 10:02:05;;;;;;;2.22;1.27;;;;;;;16.21;88.98;94112.47;723788;40;20036;-84
2021/07/09 10:02:36;;;;;;;1.45;1.35;;;;;;;16.46;88.95;94120.38;722526;40;21243;-85
2021/07/09 10:03:07;;;;;;;1.98;1.20;;;;;;;16.50;87.01;94120.63;722283;40;20081;-85
2021/07/09 10:03:38;;;;;;;1.40;1.30;;;;;;;16.59;83.81;94113.81;723272;41;20044;-85
2021/07/09 10:04:09;;;;;;;1.70;1.25;;;;;;;16.68;85.38;94117.47;722962;41;20028;-85
2021/07/09 10:04:40;;;;;;;1.20;1.08;;;;;;;16.67;81.85;94121.16;723768;40;20040;-87
2021/07/09 10:05:11;;;;;;;5.65;1.48;;;;;;;16.78;85.18;94118.56;723300;41;20093;-85
2021/07/09 10:05:43;;;;;;;1.45;1.25;;;;;;;16.65;83.91;94120.63;718269;41;20053;-85
2021/07/09 10:06:14;;;;;;;2.17;1.20;;;;;;;16.69;82.92;94121.69;718509;41;20038;-85
2021/07/09 10:06:46;;;;;;;1.13;1.10;;;;;;;16.46;81.86;94111.69;715290;41;20075;-84
2021/07/09 10:07:17;;;;;;;2.22;1.50;;;;;;;16.70;83.35;94125.09;718019;41;20066;-85
2021/07/09 10:07:52;;;;;;;1.30;1.20;;;;;;;16.86;84.31;94123.28;718450;41;20058;-84
2021/07/09 10:08:26;;;;;;;2.58;1.20;;;;;;;16.78;84.61;94127.25;718287;41;20464;-86
2021/07/09 10:08:57;;;;;;;1.38;1.27;;;;;;;17.11;85.12;94131.13;718719;41;20045;-85
2021/07/09 10:09:29;;;;;;;1.30;1.20;;;;;;;17.56;81.81;94131.28;720448;41;20524;-84
2021/07/09 10:10:00;;;;;;;1.10;0.95;;;;;;;17.92;79.28;94124.06;713015;41;20719;-85
2021/07/09 10:10:31;;;;;;;1.40;1.30;;;;;;;18.27;82.72;94117.03;719282;41;20392;-85
2021/07/09 10:11:02;;;;;;;1.17;1.08;;;;;;;17.74;76.21;94117.56;717270;41;20507;-85
2021/07/09 10:11:33;;;;;;;1.30;1.15;;;;;;;17.35;76.92;94117.41;717407;41;20042;-85
2021/07/09 10:12:06;;;;;;;1.65;1.10;;;;;;;17.31;80.96;94121.66;718105;41;20050;-85
2021/07/09 10:12:37;;;;;;;1.10;1.00;;;;;;;17.29;80.61;94131.63;718206;41;20049;-86
2021/07/09 10:13:13;;;;;;;1.10;1.00;;;;;;;17.22;82.07;94133.75;718654;41;20454;-85
2021/07/09 10:13:44;;;;;;;1.48;1.00;;;;;;;17.52;82.36;94131.03;717422;41;20415;-85
2021/07/09 10:14:18;;;;;;;2.97;1.20;;;;;;;17.70;80.77;94127.03;719199;41;20106;-84
2021/07/09 10:14:50;;;;;;;2.00;1.10;;;;;;;17.81;79.37;94117.28;716389;41;20069;-85
2021/07/09 10:15:25;;;;;;;0.90;0.90;;;;;;;17.74;81.55;94122.03;716709;41;20041;-84
2021/07/09 10:15:57;;;;;;;1.05;0.80;;;;;;;17.84;78.81;94124.63;716887;41;20318;-86
2021/07/09 10:16:28;;;;;;;1.20;1.00;;;;;;;18.01;80.27;94127.72;716130;41;20086;-85
2021/07/09 10:17:00;;;;;;;2.25;0.93;;;;;;;18.12;79.13;94127.66;716475;41;20041;-85
2021/07/09 10:17:33;;;;;;;0.90;0.90;;;;;;;17.97;78.90;94123.28;719425;41;20052;-84
2021/07/09 10:18:26;;;;;;;0.80;0.80;;;;;;;17.74;76.33;94122.03;718085;41;20506;-86
2021/07/09 10:18:59;;;;;;;1.17;1.08;;;;;;;17.67;78.19;94114.41;717631;41;20656;-83
2021/07/09 10:19:48;;;;;;;2.38;1.10;;;;;;;17.73;81.99;94120.44;722269;41;20040;-85
2021/07/09 10:20:20;;;;;;;1.38;1.00;;;;;;;17.94;80.28;94121.19;723172;41;20148;-85
2021/07/09 10:20:51;;;;;;;2.88;0.93;;;;;;;18.27;82.27;94122.31;719964;41;20048;-85
2021/07/09 10:21:22;;;;;;;5.20;1.10;;;;;;;18.15;80.98;94119.22;719109;41;20052;-85
2021/07/09 10:21:53;;;;;;;1.50;0.95;;;;;;;18.15;81.45;94111.31;716682;41;20567;-84
2021/07/09 10:22:25;;;;;;;1.13;1.00;;;;;;;18.12;77.07;94122.41;723914;40;20051;-85
2021/07/09 10:22:58;;;;;;;2.05;1.00;;;;;;;18.25;77.83;94121.78;723090;40;20169;-84
2021/07/09 10:23:29;;;;;;;3.70;1.00;;;;;;;18.05;75.67;94120.06;721048;41;20065;-86
2021/07/09 10:24:01;;;;;;;1.08;0.80;;;;;;;18.49;76.94;94122.69;719861;41;20036;-85
2021/07/09 10:24:34;;;;;;;1.05;0.95;;;;;;;18.49;76.22;94114.00;715961;41;20047;-86
2021/07/09 10:25:05;;;;;;;1.20;0.80;;;;;;;18.40;76.54;94120.91;715796;41;20050;-85
2021/07/09 10:25:37;;;;;;;1.15;0.90;;;;;;;18.41;80.08;94125.91;716809;41;21041;-85
2021/07/09 10:26:08;;;;;;;2.40;0.90;;;;;;;18.59;78.08;94116.56;714919;41;20026;-85
2021/07/09 10:26:47;;;;;;;2.25;0.70;;;;;;;18.48;77.16;94120.31;713416;41;20154;-85
2021/07/09 10:27:20;;;;;;;0.85;0.77;;;;;;;18.26;75.87;94123.38;713080;41;20035;-87
2021/07/09 10:27:52;;;;;;;0.80;0.80;;;;;;;18.29;74.53;94126.25;711363;41;20046;-84
2021/07/09 10:28:23;;;;;;;1.48;1.05;;;;;;;18.25;76.76;94127.03;713216;41;20192;-85
2021/07/09 10:29:14;;;;;;;0.93;0.80;;;;;;;18.15;75.23;94132.38;716168;41;20065;-85
2021/07/09 10:29:47;;;;;;;1.95;0.98;;;;;;;18.13;75.83;94130.00;715063;41;20046;-85
2021/07/09 10:30:18;;;;;;;1.35;0.93;;;;;;;18.22;78.09;94127.59;715052;41;20050;-85
2021/07/09 10:30:52;;;;;;;1.02;0.80;;;;;;;18.04;74.84;94116.63;716274;41;20227;-84
2021/07/09 10:31:39;;;;;;;0.77;0.77;;;;;;;17.87;75.50;94121.47;716312;41;21336;-84
2021/07/09 10:32:10;;;;;;;1.00;0.90;;;;;;;17.79;77.25;94124.66;714345;41;20031;-84
2021/07/09 10:32:44;;;;;;;1.00;0.85;;;;;;;17.57;75.55;94136.28;713601;41;20158;-84
2021/07/09 10:33:36;;;;;;;2.53;0.88;;;;;;;17.73;77.65;94125.69;716965;41;20095;-86
2021/07/09 10:34:24;;;;;;;1.92;0.90;;;;;;;18.41;77.32;94123.28;717871;41;20033;-83
2021/07/09 10:34:54;;;;;;;1.60;0.80;;;;;;;18.47;74.92;94116.91;716527;41;20194;-83
2021/07/09 10:35:32;;;;;;;1.33;0.80;;;;;;;18.35;73.29;94129.63;717882;41;20050;-83
2021/07/09 10:36:28;;;;;;;1.05;0.80;;;;;;;18.74;73.48;94121.72;717011;41;20187;-85
2021/07/09 10:37:09;;;;;;;0.88;0.70;;;;;;;19.14;75.06;94126.94;713691;41;20455;-85
2021/07/09 10:37:39;;;;;;;;;;;;;;;19.22;71.23;94131.59;716159;41;20051;-85
2021/07/09 10:38:11;;;;;;;;;;;;;;;19.41;79.15;94129.03;716080;41;20020;-86
2021/07/09 10:38:43;;;;;;;2.53;0.88;;;;;;;19.23;74.45;94125.25;712857;41;20693;-84
2021/07/09 10:39:14;;;;;;;1.00;0.90;;;;;;;18.89;70.48;94134.00;712246;41;20573;-83
2021/07/09 10:39:48;;;;;;;0.88;0.80;;;;;;;18.61;74.03;94114.44;711331;41;20035;-84
2021/07/09 10:40:23;;;;;;;0.80;0.70;;;;;;;18.68;75.63;94125.44;716005;41;20042;-83
2021/07/09 10:41:10;;;;;;;1.25;0.80;;;;;;;18.44;73.27;94114.03;714626;41;20026;-86
2021/07/09 10:41:41;;;;;;;2.35;0.80;;;;;;;18.74;74.86;94119.09;714604;41;20750;-84
2021/07/09 10:42:22;;;;;;;0.70;0.70;;;;;;;19.00;70.96;94126.00;716569;41;20025;-85
2021/07/09 10:42:53;;;;;;;1.35;0.70;;;;;;;18.95;73.66;94122.34;717367;41;20095;-84
2021/07/09 10:43:23;;;;;;;0.77;0.70;;;;;;;18.93;74.68;94126.34;718154;41;20309;-85
2021/07/09 10:44:21;;;;;;;1.85;0.77;;;;;;;18.69;74.84;94127.03;716953;41;20033;-86
2021/07/09 10:45:11;;;;;;;1.10;0.90;;;;;;;18.45;73.31;94142.72;713001;41;20157;-85
2021/07/09 10:45:43;;;;;;;1.45;0.70;;;;;;;18.25;74.54;94124.41;708664;41;20579;-84
2021/07/09 10:46:32;;;;;;;1.10;0.68;;;;;;;17.64;73.93;94128.09;715002;41;20046;-84
2021/07/09 10:47:16;;;;;;;0.70;0.70;;;;;;;17.61;76.32;94129.41;712182;41;20167;-85
2021/07/09 10:48:03;;;;;;;1.35;0.80;;;;;;;16.96;76.61;94141.69;714482;41;20328;-85
2021/07/09 10:48:38;;;;;;;1.35;1.02;;;;;;;16.62;78.02;94129.03;706032;41;20044;-83
2021/07/09 10:49:09;;;;;;;0.75;0.75;;;;;;;16.69;79.01;94128.78;707896;41;20050;-83
2021/07/09 10:49:52;;;;;;;1.65;0.75;;;;;;;16.47;80.03;94127.19;709068;41;20458;-85
2021/07/09 10:50:25;;;;;;;0.80;0.80;;;;;;;16.35;79.26;94124.03;712903;41;20041;-84
2021/07/09 10:50:56;;;;;;;1.00;0.60;;;;;;;16.35;79.72;94134.53;710238;41;20118;-84
2021/07/09 10:51:52;;;;;;;1.60;0.85;;;;;;;15.98;81.27;94125.00;707563;41;20040;-84
2021/07/09 10:52:54;;;;;;;1.42;0.93;;;;;;;16.01;82.96;94129.75;708252;41;20039;-85
2021/07/09 10:53:25;;;;;;;1.25;0.80;;;;;;;16.14;84.12;94133.72;710080;41;20050;-85
2021/07/09 10:54:26;;;;;;;1.77;0.80;;;;;;;16.00;83.09;94125.56;709944;41;20120;-84
2021/07/09 10:54:58;;;;;;;1.52;0.80;;;;;;;16.10;82.80;94119.53;710498;41;20320;-84
2021/07/09 10:55:28;;;;;;;0.70;0.70;;;;;;;16.14;83.17;94131.09;712014;41;20062;-85
2021/07/09 10:56:08;;;;;;;1.77;0.95;;;;;;;16.12;81.64;94125.31;707891;41;20045;-84
2021/07/09 10:56:38;;;;;;;5.40;0.80;;;;;;;16.31;81.87;94125.59;707991;41;20033;-83
2021/07/09 10:57:22;;;;;;;1.83;0.73;;;;;;;16.23;81.01;94121.66;713467;41;20105;-85
2021/07/09 10:58:07;;;;;;;1.38;0.80;;;;;;;16.22;81.67;94124.53;709822;41;20116;-84
2021/07/09 10:58:45;;;;;;;0.70;0.70;;;;;;;16.28;82.02;94107.75;705676;41;20044;-86
2021/07/09 10:59:15;;;;;;;1.10;1.00;;;;;;;16.46;81.17;94116.94;703216;41;20052;-84
2021/07/09 11:00:21;;;;;;;0.90;0.57;;;;;;;16.36;79.63;94120.34;701635;42;20056;-85
2021/07/09 11:00:55;;;;;;;1.13;0.90;;;;;;;17.21;80.96;94129.53;702199;41;20255;-85
2021/07/09 11:01:35;;;;;;;0.73;0.73;;;;;;;17.70;79.70;94123.63;701496;41;20054;-86
2021/07/09 11:02:06;;;;;;;0.75;0.70;;;;;;;18.01;79.36;94127.72;707143;41;20425;-85
2021/07/09 11:03:03;;;;;;;0.80;0.80;;;;;;;17.77;75.06;94132.81;704958;42;20455;-84
2021/07/09 11:03:37;;;;;;;1.00;0.52;;;;;;;17.79;77.80;94127.28;694313;41;20601;-85
2021/07/09 11:04:14;;;;;;;1.33;0.63;;;;;;;18.01;78.62;94127.72;704582;42;20774;-85
2021/07/09 11:04:45;;;;;;;1.50;0.70;;;;;;;18.19;77.42;94114.97;704123;42;20052;-85
2021/07/09 11:05:53;;;;;;;0.60;0.50;;;;;;;18.33;75.48;94115.94;705091;42;20053;-85
2021/07/09 11:06:32;;;;;;;1.45;0.70;;;;;;;18.99;75.28;94122.59;704262;42;20072;-86
2021/07/09 11:07:20;;;;;;;0.50;0.50;;;;;;;18.70;74.49;94115.41;706041;42;20763;-86
2021/07/09 11:07:51;;;;;;;1.83;0.70;;;;;;;18.70;74.41;94109.38;704951;41;20385;-85
2021/07/09 11:08:33;;;;;;;0.85;0.70;;;;;;;18.61;73.54;94130.25;706922;41;20109;-85
2021/07/09 11:09:09;;;;;;;1.02;0.73;;;;;;;18.64;72.90;94116.53;706198;41;20119;-85
2021/07/09 11:09:39;;;;;;;0.98;0.65;;;;;;;19.02;74.11;94124.66;703418;41;20412;-85
2021/07/09 11:10:10;;;;;;;0.60;0.60;;;;;;;19.01;76.30;94111.78;709160;41;20048;-84
2021/07/09 11:11:14;;;;;;;1.42;0.68;;;;;;;18.84;71.34;94115.59;707852;41;20043;-87
2021/07/09 11:11:47;;;;;;;1.77;0.70;;;;;;;18.45;72.15;94120.88;704692;41;23886;-87
2021/07/09 11:12:27;;;;;;;1.13;0.70;;;;;;;18.16;73.33;94124.19;711575;41;21088;-85
2021/07/09 11:12:58;;;;;;;0.90;0.55;;;;;;;18.07;73.13;94110.81;712676;41;20043;-84
2021/07/09 11:13:49;;;;;;;0.80;0.60;;;;;;;17.99;75.41;94123.78;710616;41;20128;-88
2021/07/09 11:14:34;;;;;;;1.65;0.80;;;;;;;18.18;75.13;94126.56;711913;41;20039;-86
2021/07/09 11:15:05;;;;;;;0.70;0.70;;;;;;;18.03;74.70;94115.06;710688;41;20047;-86
2021/07/09 11:15:38;;;;;;;1.27;0.60;;;;;;;17.75;74.40;94126.22;706890;41;20036;-85
2021/07/09 11:16:24;;;;;;;1.17;0.77;;;;;;;17.93;77.06;94130.91;708623;41;20048;-87
2021/07/09 11:16:59;;;;;;;0.93;0.60;;;;;;;18.02;74.41;94131.94;705069;41;20043;-85
2021/07/09 11:17:42;;;;;;;1.90;0.60;;;;;;;17.98;76.77;94136.16;707600;41;20124;-84
2021/07/09 11:18:12;;;;;;;3.80;0.70;;;;;;;17.99;77.96;94129.84;708246;41;20403;-86
2021/07/09 11:19:08;;;;;;;0.50;0.50;;;;;;;18.09;72.84;94133.47;707779;41;20043;-86
2021/07/09 11:19:39;;;;;;;0.60;0.57;;;;;;;18.05;76.38;94136.66;710188;41;20031;-86
2021/07/09 11:20:15;;;;;;;2.28;0.73;;;;;;;17.88;73.28;94138.84;709380;41;20050;-84
2021/07/09 11:20:45;;;;;;;0.50;0.50;;;;;;;18.04;73.40;94136.91;710397;41;20469;-86
2021/07/09 11:21:37;;;;;;;1.30;0.60;;;;;;;18.05;73.50;94136.66;708462;41;20040;-85
2021/07/09 11:22:09;;;;;;;1.52;0.70;;;;;;;17.99;75.78;94129.84;704060;42;20055;-87
2021/07/09 11:22:40;;;;;;;4.90;0.70;;;;;;;17.84;75.63;94114.88;701559;42;20057;-85
2021/07/09 11:23:11;;;;;;;0.50;0.50;;;;;;;17.83;73.23;94115.97;707814;41;20098;-85
2021/07/09 11:23:52;;;;;;;0.95;0.60;;;;;;;18.23;73.03;94134.44;708730;41;20043;-86
2021/07/09 11:24:28;;;;;;;0.60;0.60;;;;;;;18.35;72.90;94127.00;709299;41;20104;-85
2021/07/09 11:25:05;;;;;;;4.47;0.80;;;;;;;18.46;73.80;94123.25;708812;41;20722;-86
2021/07/09 11:25:36;;;;;;;0.60;0.60;;;;;;;18.55;72.73;94120.81;709912;41;20449;-86
2021/07/09 11:26:06;;;;;;;0.90;0.60;;;;;;;18.74;71.78;94116.44;707576;41;20043;-85
2021/07/09 11:26:50;;;;;;;0.65;0.50;;;;;;;18.77;72.71;94136.19;706545;41;20236;-85
2021/07/09 11:27:27;;;;;;;0.55;0.40;;;;;;;18.82;70.66;94130.91;707924;41;20082;-85
2021/07/09 11:27:58;;;;;;;0.77;0.60;;;;;;;18.83;71.75;94124.56;707127;41;20081;-85
2021/07/09 11:28:29;;;;;;;1.88;0.43;;;;;;;18.85;70.25;94119.00;706099;41;20227;-85
2021/07/09 11:29:16;;;;;;;1.73;0.60;;;;;;;18.75;68.48;94122.53;706808;41;20431;-84
2021/07/09 11:29:47;;;;;;;0.52;0.52;;;;;;;18.81;70.49;94118.00;705886;42;20917;-86
2021/07/09 11:30:18;;;;;;;0.95;0.40;;;;;;;18.78;66.71;94114.06;702442;42;20230;-86
2021/07/09 11:30:56;;;;;;;0.50;0.50;;;;;;;19.06;71.34;94138.06;700625;42;20557;-85
2021/07/09 11:31:31;;;;;;;1.52;0.47;;;;;;;18.89;66.40;94126.09;703840;41;20411;-86
2021/07/09 11:32:04;;;;;;;0.40;0.40;;;;;;;19.10;68.79;94120.66;707445;41;20052;-85
2021/07/09 11:32:35;;;;;;;1.15;1.05;;;;;;;19.07;69.11;94129.91;707192;41;20083;-85
2021/07/09 11:33:05;;;;;;;0.80;0.40;;;;;;;19.10;67.35;94125.91;709631;41;20036;-86
2021/07/09 11:33:36;;;;;;;0.40;0.40;;;;;;;18.49;69.08;94124.53;707229;41;20035;-84
2021/07/09 11:34:09;;;;;;;2.55;0.60;;;;;;;18.27;72.10;94125.72;708902;41;20576;-84
2021/07/09 11:35:02;;;;;;;0.60;0.50;;;;;;;18.44;71.89;94125.34;706849;41;20120;-86
2021/07/09 11:35:32;;;;;;;0.60;0.40;;;;;;;18.07;70.88;94120.56;707564;41;20313;-86
2021/07/09 11:36:19;;;;;;;0.73;0.40;;;;;;;17.97;72.07;94128.53;708805;41;20036;-88
2021/07/09 11:36:54;;;;;;;3.05;0.50;;;;;;;17.92;69.83;94118.81;711784;41;20042;-84
2021/07/09 11:37:30;;;;;;;0.70;0.50;;;;;;;17.85;72.12;94128.84;711352;41;20474;-85
2021/07/09 11:38:07;;;;;;;0.40;0.40;;;;;;;17.34;72.97;94136.88;712131;41;20035;-85
2021/07/09 11:38:38;;;;;;;1.65;0.40;;;;;;;17.33;72.75;94130.06;709134;41;20170;-84
2021/07/09 11:39:14;;;;;;;0.90;0.50;;;;;;;17.24;72.40;94111.41;711418;41;20043;-82
2021/07/09 11:39:50;;;;;;;1.23;0.50;;;;;;;17.62;72.62;94131.03;711576;41;20583;-85
2021/07/09 11:40:22;;;;;;;0.80;0.40;;;;;;;17.92;69.18;94124.06;711964;41;20378;-87
2021/07/09 11:40:52;;;;;;;0.70;0.40;;;;;;;18.04;71.90;94127.16;708864;41;20028;-84
2021/07/09 11:41:23;;;;;;;0.55;0.50;;;;;;;18.23;70.00;94126.56;706483;41;20043;-85
2021/07/09 11:41:57;;;;;;;0.63;0.50;;;;;;;18.21;70.94;94134.72;707846;41;20096;-84
2021/07/09 11:42:31;;;;;;;1.42;0.60;;;;;;;18.26;71.98;94118.09;707098;41;20051;-86
2021/07/09 11:43:01;;;;;;;0.75;0.50;;;;;;;18.65;73.00;94127.84;708198;41;20469;-85
2021/07/09 11:43:33;;;;;;;0.85;0.50;;;;;;;18.85;68.22;94125.06;700470;41;20044;-86
2021/07/09 11:44:05;;;;;;;0.95;0.40;;;;;;;19.12;72.53;94124.59;713469;41;20042;-84
2021/07/09 11:44:52;;;;;;;2.00;0.45;;;;;;;19.21;71.64;94132.69;713052;41;20088;-86
2021/07/09 11:45:29;;;;;;;0.93;0.60;;;;;;;19.11;68.07;94122.22;710834;41;20050;-84
2021/07/09 11:46:06;;;;;;;0.50;0.40;;;;;;;18.59;66.96;94121.03;712343;41;20052;-85
2021/07/09 11:46:37;;;;;;;1.15;0.50;;;;;;;18.46;69.73;94120.59;711403;41;20042;-85
2021/07/09 11:47:09;;;;;;;0.88;0.50;;;;;;;18.42;69.55;94116.16;711009;41;20367;-85
2021/07/09 11:47:41;;;;;;;1.48;0.50;;;;;;;18.25;69.71;94113.88;705047;41;20226;-85
2021/07/09 11:48:15;;;;;;;5.13;0.50;;;;;;;17.90;69.73;94123.56;710873;41;20123;-85
2021/07/09 11:48:45;;;;;;;0.57;0.50;;;;;;;17.83;71.87;94115.97;705887;41;20444;-86
2021/07/09 11:49:18;;;;;;;0.57;0.55;;;;;;;17.83;72.57;94115.97;708573;41;20127;-85
2021/07/09 11:50:05;;;;;;;0.75;0.52;;;;;;;17.86;72.32;94129.63;710339;41;20027;-85
2021/07/09 11:50:36;;;;;;;0.95;0.55;;;;;;;18.29;72.40;94125.47;702419;41;20313;-82
2021/07/09 11:51:06;;;;;;;2.15;0.50;;;;;;;18.25;71.94;94140.22;711596;41;20119;-82
2021/07/09 11:51:37;;;;;;;3.72;0.70;;;;;;;18.00;70.17;94131.41;713957;41;20352;-83
2021/07/09 11:52:11;;;;;;;1.23;0.50;;;;;;;17.50;71.95;94129.72;718303;41;20167;-82
2021/07/09 11:52:45;;;;;;;1.98;0.50;;;;;;;17.47;73.56;94133.69;713220;41;20338;-82
2021/07/09 11:53:16;;;;;;;0.75;0.40;;;;;;;17.50;72.82;94143.69;712996;41;20037;-83
2021/07/09 11:54:08;;;;;;;1.52;0.50;;;;;;;17.27;74.34;94141.63;713590;41;20599;-81
2021/07/09 11:54:47;;;;;;;1.88;0.50;;;;;;;17.04;73.61;94141.16;710230;41;21138;-81
2021/07/09 11:55:28;;;;;;;0.50;0.50;;;;;;;17.12;74.49;94139.81;708786;41;20042;-78
2021/07/09 11:56:15;;;;;;;3.05;0.55;;;;;;;16.82;75.10;94146.66;707859;41;20044;-84
2021/07/09 11:56:50;;;;;;;1.20;0.60;;;;;;;16.63;76.73;94151.63;705514;41;20390;-84
2021/07/09 11:57:22;;;;;;;1.30;0.50;;;;;;;16.62;76.86;94150.03;707552;41;20028;-85
2021/07/09 11:57:53;;;;;;;1.15;0.60;;;;;;;16.59;75.04;94150.56;709686;41;20039;-85
2021/07/09 11:58:23;;;;;;;0.75;0.50;;;;;;;16.52;75.92;94139.56;712153;41;20168;-84
2021/07/09 11:59:14;;;;;;;0.57;0.57;;;;;;;16.43;74.38;94133.22;711961;41;20039;-84
2021/07/09 11:59:45;;;;;;;;;;;;;;;16.37;75.15;94163.91;710807;41;20163;-84
2021/07/09 12:00:17;;;;;;;;;;;;;;;16.31;74.50;94156.31;708188;41;19938;-85
2021/07/09 12:00:48;;;;;;;1.23;0.50;;;;;;;16.22;74.11;94145.53;709917;41;19937;-85
2021/07/09 12:01:19;;;;;;;2.03;0.50;;;;;;;16.26;74.60;94150.00;710432;41;20944;-84
2021/07/09 12:01:59;;;;;;;1.80;0.50;;;;;;;16.28;75.36;94150.53;711158;41;21051;-85
2021/07/09 12:02:30;;;;;;;0.50;0.50;;;;;;;16.36;75.34;94151.84;711490;41;20275;-87
2021/07/09 12:03:01;;;;;;;0.55;0.50;;;;;;;16.41;75.79;94164.22;710397;41;20130;-84
2021/07/09 12:03:32;;;;;;;0.60;0.60;;;;;;;16.43;74.81;94151.59;709829;41;20537;-85
2021/07/09 12:04:02;;;;;;;0.40;0.40;;;;;;;16.82;73.29;94145.88;710180;41;20051;-84
2021/07/09 12:04:36;;;;;;;2.70;0.60;;;;;;;17.09;74.57;94138.50;709848;41;20051;-85
2021/07/09 12:05:11;;;;;;;0.65;0.50;;;;;;;17.38;71.83;94151.84;709383;41;20039;-86
2021/07/09 12:05:41;;;;;;;9.48;0.60;;;;;;;17.42;71.12;94144.22;710766;41;20072;-84
2021/07/09 12:06:21;;;;;;;1.45;0.52;;;;;;;17.52;72.90;94152.06;708872;41;20463;-85
2021/07/09 12:07:19;;;;;;;0.57;0.40;;;;;;;17.19;69.76;94137.72;715023;41;20062;-84
2021/07/09 12:07:51;;;;;;;2.75;0.57;;;;;;;17.33;70.17;94137.94;714547;41;20054;-85
2021/07/09 12:08:21;;;;;;;1.33;0.50;;;;;;;17.23;71.53;94149.25;713751;41;20038;-86
2021/07/09 12:08:59;;;;;;;3.67;0.50;;;;;;;17.24;71.48;94142.97;714913;41;20042;-85
2021/07/09 12:09:29;;;;;;;4.47;0.47;;;;;;;17.23;72.44;94132.69;715890;41;20545;-85
2021/07/09 12:10:16;;;;;;;6.20;0.60;;;;;;;17.31;72.54;94151.34;716453;41;20037;-86
2021/07/09 12:10:46;;;;;;;0.70;0.50;;;;;;;17.28;70.71;94146.63;718645;41;20049;-84
2021/07/09 12:11:17;;;;;;;3.20;0.50;;;;;;;17.24;70.79;94153.47;714822;41;20053;-85
2021/07/09 12:12:00;;;;;;;0.50;0.43;;;;;;;17.22;71.59;94137.19;716577;41;20042;-85
2021/07/09 12:12:34;;;;;;;0.80;0.50;;;;;;;16.90;71.19;94140.09;711812;41;20158;-86
2021/07/09 12:13:06;;;;;;;0.50;0.47;;;;;;;16.72;72.72;94138.75;713510;41;20039;-85
2021/07/09 12:13:43;;;;;;;3.13;0.73;;;;;;;16.70;73.47;94146.91;718725;41;20048;-84
2021/07/09 12:14:13;;;;;;;0.98;0.47;;;;;;;16.61;73.76;94143.22;718703;41;20033;-84
2021/07/09 12:14:58;;;;;;;0.70;0.57;;;;;;;16.63;74.71;94145.56;717321;41;20033;-84
2021/07/09 12:15:36;;;;;;;0.95;0.60;;;;;;;16.85;75.25;94148.78;715177;41;20122;-85
2021/07/09 12:16:07;;;;;;;0.85;0.60;;;;;;;16.89;74.09;94152.47;715504;41;20094;-87
2021/07/09 12:16:37;;;;;;;2.83;0.50;;;;;;;16.96;73.88;94154.81;716320;41;20041;-86
2021/07/09 12:17:14;;;;;;;0.40;0.40;;;;;;;17.03;73.89;94154.53;717147;41;20042;-85
2021/07/09 12:17:50;;;;;;;1.48;0.60;;;;;;;16.90;73.18;94156.66;717970;41;20261;-86
2021/07/09 12:18:22;;;;;;;0.40;0.40;;;;;;;16.92;72.69;94157.19;716726;41;20037;-85
2021/07/09 12:18:52;;;;;;;0.43;0.40;;;;;;;16.91;74.26;94157.44;718334;41;20769;-86
2021/07/09 12:19:23;;;;;;;0.65;0.50;;;;;;;16.87;73.13;94156.41;716734;41;20041;-85
2021/07/09 12:19:54;;;;;;;0.60;0.43;;;;;;;16.67;73.84;94159.78;716840;41;20257;-86
2021/07/09 12:20:38;;;;;;;1.38;0.60;;;;;;;16.41;73.46;94165.00;715527;41;20046;-84
2021/07/09 12:21:09;;;;;;;1.02;0.50;;;;;;;16.27;74.56;94153.41;713215;41;20068;-85
2021/07/09 12:21:39;;;;;;;3.63;0.50;;;;;;;16.13;74.94;94158.38;715891;41;20048;-86
2021/07/09 12:22:27;;;;;;;0.73;0.45;;;;;;;16.18;74.98;94163.63;702510;41;20764;-86
2021/07/09 12:23:00;;;;;;;0.93;0.60;;;;;;;16.14;76.02;94161.78;713352;41;20042;-85
2021/07/09 12:23:33;;;;;;;0.50;0.50;;;;;;;16.18;76.59;94168.09;715376;41;20448;-81
2021/07/09 12:24:05;;;;;;;2.30;0.55;;;;;;;16.28;76.35;94155.78;708834;41;20050;-88
2021/07/09 12:24:36;;;;;;;0.80;0.60;;;;;;;16.39;77.57;94167.09;708359;41;20035;-84
2021/07/09 12:25:19;;;;;;;0.57;0.47;;;;;;;16.40;74.14;94157.38;709501;41;20043;-82
2021/07/09 12:25:54;;;;;;;1.35;0.50;;;;;;;16.36;74.35;94159.72;703834;41;20039;-85
2021/07/09 12:26:25;;;;;;;0.40;0.40;;;;;;;16.30;74.84;94157.38;708178;41;20107;-84
2021/07/09 12:26:57;;;;;;;0.80;0.57;;;;;;;16.37;74.61;94163.91;706361;41;20075;-86
2021/07/09 12:27:32;;;;;;;1.05;0.60;;;;;;;16.39;73.60;94171.56;707337;41;20201;-86
2021/07/09 12:28:08;;;;;;;0.45;0.40;;;;;;;16.47;74.35;94163.94;710224;41;21141;-87
2021/07/09 12:28:42;;;;;;;0.85;0.47;;;;;;;16.41;73.89;94159.75;710310;41;20213;-83
2021/07/09 12:29:14;;;;;;;0.52;0.52;;;;;;;16.57;75.13;94162.38;711820;41;20107;-82
2021/07/09 12:29:47;;;;;;;1.23;0.50;;;;;;;16.81;74.37;94160.88;710511;41;20239;-89
2021/07/09 12:30:25;;;;;;;1.15;0.60;;;;;;;16.96;74.24;94165.31;707817;41;20389;-82
2021/07/09 12:30:59;;;;;;;0.40;0.40;;;;;;;17.17;73.48;94172.13;710294;41;20132;-85
2021/07/09 12:31:31;;;;;;;5.65;0.60;;;;;;;17.21;71.61;94166.34;711426;41;20045;-85
2021/07/09 12:32:03;;;;;;;0.50;0.50;;;;;;;17.32;72.68;94179.19;711337;41;20980;-82
2021/07/09 12:32:46;;;;;;;1.52;0.70;;;;;;;17.09;74.22;94174.50;711006;41;20085;-84
2021/07/09 12:33:25;;;;;;;1.13;0.52;;;;;;;17.24;72.68;94181.59;712922;41;20038;-85
2021/07/09 12:33:56;;;;;;;1.33;0.50;;;;;;;17.26;75.02;94175.00;715075;41;20048;-85
2021/07/09 12:34:29;;;;;;;0.85;0.50;;;;;;;17.25;73.53;94172.66;714412;41;20189;-85
2021/07/09 12:35:04;;;;;;;2.88;0.60;;;;;;;17.35;71.96;94168.16;711676;41;20093;-85
2021/07/09 12:35:35;;;;;;;1.08;0.60;;;;;;;17.15;71.54;94169.00;709260;41;20174;-86
2021/07/09 12:36:09;;;;;;;0.52;0.40;;;;;;;16.97;72.22;94177.41;711662;41;20179;-86
2021/07/09 12:36:40;;;;;;;0.60;0.60;;;;;;;17.00;72.50;94169.00;711712;41;20523;-86
2021/07/09 12:37:12;;;;;;;0.70;0.50;;;;;;;16.91;74.64;94173.97;711846;41;20146;-85